sensor_id;sensor_type;location;lat;lon;timestamp;pressure;altitude;pressure_sealevel;temperature;humidity
59063;BME280;44851;45.648;9.004;2023-05-29T00:02:01;98857.75;;;18.93;56.01
59063;BME280;44851;45.648;9.004;2023-05-29T00:04:26;98868.09;;;18.95;56.04
59063;BME280;44851;45.648;9.004;2023-05-29T00:06:52;98863.63;;;18.89;56.11
59063;BME280;44851;45.648;9.004;2023-05-29T00:09:17;98858.63;;;18.73;56.32
59063;BME280;44851;45.648;9.004;2023-05-29T00:11:43;98856.47;;;18.83;56.89
59063;BME280;44851;45.648;9.004;2023-05-29T00:14:08;98849.63;;;18.60;57.66
59063;BME280;44851;45.648;9.004;2023-05-29T00:16:37;98852.84;;;18.56;56.95
59063;BME280;44851;45.648;9.004;2023-05-29T00:19:03;98850.41;;;18.54;57.17
59063;BME280;44851;45.648;9.004;2023-05-29T00:21:28;98849.78;;;18.52;57.25
59063;BME280;44851;45.648;9.004;2023-05-29T00:23:54;98845.16;;;18.61;57.40
59063;BME280;44851;45.648;9.004;2023-05-29T00:26:19;98847.22;;;18.65;56.71
59063;BME280;44851;45.648;9.004;2023-05-29T00:28:46;98843.94;;;18.63;57.29
59063;BME280;44851;45.648;9.004;2023-05-29T00:31:11;98848.84;;;18.66;56.87
59063;BME280;44851;45.648;9.004;2023-05-29T00:33:37;98839.88;;;18.61;56.91
59063;BME280;44851;45.648;9.004;2023-05-29T00:36:02;98841.03;;;18.45;57.19
59063;BME280;44851;45.648;9.004;2023-05-29T00:38:28;98841.88;;;18.59;56.92
59063;BME280;44851;45.648;9.004;2023-05-29T00:40:53;98838.22;;;18.53;57.24
59063;BME280;44851;45.648;9.004;2023-05-29T00:43:18;98839.09;;;18.60;57.66
59063;BME280;44851;45.648;9.004;2023-05-29T00:45:44;98841.53;;;18.68;57.47
59063;BME280;44851;45.648;9.004;2023-05-29T00:48:10;98850.72;;;18.38;57.36
59063;BME280;44851;45.648;9.004;2023-05-29T00:50:35;98853.19;;;18.46;57.33
59063;BME280;44851;45.648;9.004;2023-05-29T00:53:01;98843.41;;;18.40;57.91
59063;BME280;44851;45.648;9.004;2023-05-29T00:55:29;98840.47;;;18.56;57.50
59063;BME280;44851;45.648;9.004;2023-05-29T00:57:54;98848.84;;;18.66;57.95
59063;BME280;44851;45.648;9.004;2023-05-29T01:00:20;98837.84;;;18.56;57.33
59063;BME280;44851;45.648;9.004;2023-05-29T01:02:46;98840.34;;;18.71;57.64
59063;BME280;44851;45.648;9.004;2023-05-29T01:05:12;98841.53;;;18.68;57.57
59063;BME280;44851;45.648;9.004;2023-05-29T01:07:38;98838.75;;;18.77;57.38
59063;BME280;44851;45.648;9.004;2023-05-29T01:10:05;98833.22;;;18.65;57.98
59063;BME280;44851;45.648;9.004;2023-05-29T01:16:29;98833.56;;;18.55;56.90
59063;BME280;44851;45.648;9.004;2023-05-29T01:18:23;98832.59;;;18.69;57.81
59063;BME280;44851;45.648;9.004;2023-05-29T01:20:52;98829.97;;;18.69;57.99
59063;BME280;44851;45.648;9.004;2023-05-29T01:28:48;98822.38;;;18.53;57.48
59063;BME280;44851;45.648;9.004;2023-05-29T01:31:19;98818.78;;;18.61;57.69
59063;BME280;44851;45.648;9.004;2023-05-29T01:33:58;98816.34;;;18.59;56.99
59063;BME280;44851;45.648;9.004;2023-05-29T01:36:25;98815.25;;;18.47;58.06
59063;BME280;44851;45.648;9.004;2023-05-29T01:38:53;98816.38;;;18.66;57.55
59063;BME280;44851;45.648;9.004;2023-05-29T01:41:20;98823.47;;;18.65;57.90
59063;BME280;44851;45.648;9.004;2023-05-29T01:44:05;98823.00;;;18.55;56.14
59063;BME280;44851;45.648;9.004;2023-05-29T01:46:34;98827.88;;;18.58;58.14
59063;BME280;44851;45.648;9.004;2023-05-29T01:49:01;98828.28;;;18.55;58.25
59063;BME280;44851;45.648;9.004;2023-05-29T01:51:26;98836.25;;;18.62;58.23
59063;BME280;44851;45.648;9.004;2023-05-29T01:53:52;98835.25;;;18.69;58.00
59063;BME280;44851;45.648;9.004;2023-05-29T01:56:18;98832.59;;;18.69;58.01
59063;BME280;44851;45.648;9.004;2023-05-29T01:58:43;98830.16;;;18.61;58.01
59063;BME280;44851;45.648;9.004;2023-05-29T02:01:09;98823.25;;;18.60;58.60
59063;BME280;44851;45.648;9.004;2023-05-29T02:03:35;98827.66;;;18.53;58.17
59063;BME280;44851;45.648;9.004;2023-05-29T02:06:01;98829.69;;;18.51;58.78
59063;BME280;44851;45.648;9.004;2023-05-29T02:08:27;98836.31;;;18.40;58.56
59063;BME280;44851;45.648;9.004;2023-05-29T02:10:52;98831.63;;;18.36;58.44
59063;BME280;44851;45.648;9.004;2023-05-29T02:13:18;98832.16;;;18.25;58.55
59063;BME280;44851;45.648;9.004;2023-05-29T02:15:44;98834.97;;;18.51;57.61
59063;BME280;44851;45.648;9.004;2023-05-29T02:18:12;98828.19;;;18.42;58.46
59063;BME280;44851;45.648;9.004;2023-05-29T02:20:38;98834.59;;;18.54;57.88
59063;BME280;44851;45.648;9.004;2023-05-29T02:23:04;98830.22;;;18.40;58.05
59063;BME280;44851;45.648;9.004;2023-05-29T02:25:29;98831.72;;;18.49;57.79
59063;BME280;44851;45.648;9.004;2023-05-29T02:27:55;98834.19;;;18.57;58.06
59063;BME280;44851;45.648;9.004;2023-05-29T02:30:20;98835.34;;;18.48;57.97
59063;BME280;44851;45.648;9.004;2023-05-29T02:32:46;98845.97;;;18.27;57.53
59063;BME280;44851;45.648;9.004;2023-05-29T02:35:11;98833.25;;;18.37;58.32
59063;BME280;44851;45.648;9.004;2023-05-29T02:37:40;98842.56;;;18.33;58.47
59063;BME280;44851;45.648;9.004;2023-05-29T02:40:06;98840.00;;;18.46;57.98
59063;BME280;44851;45.648;9.004;2023-05-29T02:42:34;98836.81;;;18.23;58.37
59063;BME280;44851;45.648;9.004;2023-05-29T02:45:00;98836.97;;;18.14;58.43
59063;BME280;44851;45.648;9.004;2023-05-29T02:47:25;98832.28;;;18.16;57.47
59063;BME280;44851;45.648;9.004;2023-05-29T02:49:51;98825.38;;;18.15;58.27
59063;BME280;44851;45.648;9.004;2023-05-29T02:52:16;98819.81;;;18.32;58.05
59063;BME280;44851;45.648;9.004;2023-05-29T02:54:42;98824.78;;;18.13;58.11
59063;BME280;44851;45.648;9.004;2023-05-29T02:57:07;98819.22;;;18.02;57.50
59063;BME280;44851;45.648;9.004;2023-05-29T02:59:33;98821.91;;;18.08;58.00
59063;BME280;44851;45.648;9.004;2023-05-29T03:01:58;98824.63;;;18.22;57.43
59063;BME280;44851;45.648;9.004;2023-05-29T03:04:24;98823.00;;;18.21;57.56
59063;BME280;44851;45.648;9.004;2023-05-29T03:06:49;98823.50;;;18.37;57.97
59063;BME280;44851;45.648;9.004;2023-05-29T03:09:15;98826.03;;;18.17;57.83
59063;BME280;44851;45.648;9.004;2023-05-29T03:11:41;98827.72;;;18.32;57.92
59063;BME280;44851;45.648;9.004;2023-05-29T03:14:07;98834.03;;;18.31;58.25
59063;BME280;44851;45.648;9.004;2023-05-29T03:16:32;98829.97;;;18.28;57.66
59063;BME280;44851;45.648;9.004;2023-05-29T03:18:58;98829.84;;;18.15;58.13
59063;BME280;44851;45.648;9.004;2023-05-29T03:21:23;98832.69;;;18.13;58.45
59063;BME280;44851;45.648;9.004;2023-05-29T03:23:49;98831.91;;;18.20;58.13
59063;BME280;44851;45.648;9.004;2023-05-29T03:26:14;98824.63;;;18.22;58.48
59063;BME280;44851;45.648;9.004;2023-05-29T03:28:40;98832.63;;;18.35;58.12
59063;BME280;44851;45.648;9.004;2023-05-29T03:31:06;98826.66;;;18.20;58.58
59063;BME280;44851;45.648;9.004;2023-05-29T03:33:33;98821.50;;;18.39;58.19
59063;BME280;44851;45.648;9.004;2023-05-29T03:35:58;98829.16;;;18.28;58.46
59063;BME280;44851;45.648;9.004;2023-05-29T03:38:23;98834.00;;;17.96;59.47
59063;BME280;44851;45.648;9.004;2023-05-29T03:40:49;98824.72;;;18.35;59.19
59063;BME280;44851;45.648;9.004;2023-05-29T03:43:14;98823.09;;;18.34;59.30
59063;BME280;44851;45.648;9.004;2023-05-29T03:45:40;98826.56;;;18.41;59.58
59063;BME280;44851;45.648;9.004;2023-05-29T03:48:05;98820.31;;;18.14;59.23
59063;BME280;44851;45.648;9.004;2023-05-29T03:50:31;98824.34;;;18.38;58.78
59063;BME280;44851;45.648;9.004;2023-05-29T03:52:56;98813.38;;;18.41;59.29
59063;BME280;44851;45.648;9.004;2023-05-29T03:55:22;98818.19;;;18.31;59.20
59063;BME280;44851;45.648;9.004;2023-05-29T03:57:48;98810.03;;;18.26;59.86
59063;BME280;44851;45.648;9.004;2023-05-29T04:00:13;98811.19;;;18.45;59.50
59063;BME280;44851;45.648;9.004;2023-05-29T04:02:39;98810.75;;;18.41;59.66
59063;BME280;44851;45.648;9.004;2023-05-29T04:05:05;98808.50;;;18.38;60.04
59063;BME280;44851;45.648;9.004;2023-05-29T04:07:32;98812.22;;;18.50;60.08
59063;BME280;44851;45.648;9.004;2023-05-29T04:09:58;98820.91;;;18.44;60.39
59063;BME280;44851;45.648;9.004;2023-05-29T04:12:23;98826.34;;;18.36;60.40
59063;BME280;44851;45.648;9.004;2023-05-29T04:14:49;98835.31;;;18.41;60.33
59063;BME280;44851;45.648;9.004;2023-05-29T04:17:14;98835.66;;;18.32;59.91
59063;BME280;44851;45.648;9.004;2023-05-29T04:19:40;98837.09;;;18.34;61.21
59063;BME280;44851;45.648;9.004;2023-05-29T04:22:05;98846.88;;;18.40;60.80
59063;BME280;44851;45.648;9.004;2023-05-29T04:24:31;98861.31;;;18.45;60.86
59063;BME280;44851;45.648;9.004;2023-05-29T04:26:57;98868.13;;;18.32;60.84
59063;BME280;44851;45.648;9.004;2023-05-29T04:29:26;98881.47;;;18.24;60.91
59063;BME280;44851;45.648;9.004;2023-05-29T04:31:51;98884.69;;;18.20;60.92
59063;BME280;44851;45.648;9.004;2023-05-29T04:34:17;98881.50;;;18.31;60.53
59063;BME280;44851;45.648;9.004;2023-05-29T04:36:42;98898.81;;;18.33;60.87
59063;BME280;44851;45.648;9.004;2023-05-29T04:39:10;98898.59;;;18.35;60.68
59063;BME280;44851;45.648;9.004;2023-05-29T04:41:35;98904.25;;;18.32;60.45
59063;BME280;44851;45.648;9.004;2023-05-29T04:44:01;98901.47;;;18.40;60.82
59063;BME280;44851;45.648;9.004;2023-05-29T04:46:26;98894.94;;;18.36;60.10
59063;BME280;44851;45.648;9.004;2023-05-29T04:48:52;98893.94;;;18.37;60.62
59063;BME280;44851;45.648;9.004;2023-05-29T04:51:22;98907.53;;;18.34;60.41
59063;BME280;44851;45.648;9.004;2023-05-29T04:53:49;98913.19;;;18.31;59.78
59063;BME280;44851;45.648;9.004;2023-05-29T04:56:16;98917.84;;;18.29;60.20
59063;BME280;44851;45.648;9.004;2023-05-29T04:58:43;98917.44;;;18.32;59.55
59063;BME280;44851;45.648;9.004;2023-05-29T05:01:09;98924.25;;;18.20;59.90
59063;BME280;44851;45.648;9.004;2023-05-29T05:03:35;98930.59;;;18.25;59.99
59063;BME280;44851;45.648;9.004;2023-05-29T05:06:01;98939.47;;;18.17;59.70
59063;BME280;44851;45.648;9.004;2023-05-29T05:08:31;98947.63;;;18.23;59.93
59063;BME280;44851;45.648;9.004;2023-05-29T05:10:59;98963.09;;;18.32;60.06
59063;BME280;44851;45.648;9.004;2023-05-29T05:13:25;98970.03;;;18.33;60.26
59063;BME280;44851;45.648;9.004;2023-05-29T05:15:50;98981.00;;;18.37;59.93
59063;BME280;44851;45.648;9.004;2023-05-29T05:18:16;98993.69;;;18.48;61.25
59063;BME280;44851;45.648;9.004;2023-05-29T05:20:41;98988.56;;;18.40;61.93
59063;BME280;44851;45.648;9.004;2023-05-29T05:23:07;98981.50;;;18.47;62.50
59063;BME280;44851;45.648;9.004;2023-05-29T05:25:33;98988.00;;;18.45;65.91
59063;BME280;44851;45.648;9.004;2023-05-29T05:28:00;98977.38;;;18.16;68.38
59063;BME280;44851;45.648;9.004;2023-05-29T05:30:26;98983.03;;;18.13;69.75
59063;BME280;44851;45.648;9.004;2023-05-29T05:32:51;98980.47;;;18.20;70.48
59063;BME280;44851;45.648;9.004;2023-05-29T05:35:17;98986.06;;;18.10;69.65
59063;BME280;44851;45.648;9.004;2023-05-29T05:37:42;98983.34;;;18.04;70.41
59063;BME280;44851;45.648;9.004;2023-05-29T05:40:08;98992.97;;;18.11;70.90
59063;BME280;44851;45.648;9.004;2023-05-29T05:42:34;98997.81;;;18.08;71.42
59063;BME280;44851;45.648;9.004;2023-05-29T05:45:00;98995.81;;;17.95;71.22
59063;BME280;44851;45.648;9.004;2023-05-29T05:47:26;98996.81;;;17.94;71.27
59063;BME280;44851;45.648;9.004;2023-05-29T05:49:52;98990.91;;;17.92;71.37
59063;BME280;44851;45.648;9.004;2023-05-29T05:52:18;98986.31;;;17.79;70.53
59063;BME280;44851;45.648;9.004;2023-05-29T05:54:44;98972.19;;;17.87;71.86
59063;BME280;44851;45.648;9.004;2023-05-29T05:57:10;98973.06;;;17.73;70.53
59063;BME280;44851;45.648;9.004;2023-05-29T05:59:35;98996.69;;;17.81;71.92
59063;BME280;44851;45.648;9.004;2023-05-29T06:02:01;99012.25;;;17.76;70.33
59063;BME280;44851;45.648;9.004;2023-05-29T06:04:29;99018.53;;;17.75;70.17
59063;BME280;44851;45.648;9.004;2023-05-29T06:06:54;99010.22;;;17.78;71.95
59063;BME280;44851;45.648;9.004;2023-05-29T06:09:20;99014.22;;;17.74;72.22
59063;BME280;44851;45.648;9.004;2023-05-29T06:11:46;99020.56;;;17.79;71.89
59063;BME280;44851;45.648;9.004;2023-05-29T06:14:13;99020.69;;;17.86;71.55
59063;BME280;44851;45.648;9.004;2023-05-29T06:16:38;99023.78;;;17.75;70.94
59063;BME280;44851;45.648;9.004;2023-05-29T06:19:04;99015.63;;;17.70;71.24
59063;BME280;44851;45.648;9.004;2023-05-29T06:21:29;99021.28;;;17.88;72.21
59063;BME280;44851;45.648;9.004;2023-05-29T06:23:55;99028.94;;;17.83;71.41
59063;BME280;44851;45.648;9.004;2023-05-29T06:26:21;99028.41;;;17.73;72.07
59063;BME280;44851;45.648;9.004;2023-05-29T06:28:46;99032.53;;;17.60;71.59
59063;BME280;44851;45.648;9.004;2023-05-29T06:31:12;99035.44;;;17.65;72.19
59063;BME280;44851;45.648;9.004;2023-05-29T06:33:37;99029.50;;;17.78;72.55
59063;BME280;44851;45.648;9.004;2023-05-29T06:36:03;99030.31;;;17.79;72.64
59063;BME280;44851;45.648;9.004;2023-05-29T06:38:29;99027.88;;;17.77;72.45
59063;BME280;44851;45.648;9.004;2023-05-29T06:40:54;99035.25;;;17.67;72.77
59063;BME280;44851;45.648;9.004;2023-05-29T06:43:20;99027.94;;;17.84;73.15
59063;BME280;44851;45.648;9.004;2023-05-29T06:45:45;99014.88;;;17.76;72.53
59063;BME280;44851;45.648;9.004;2023-05-29T06:48:11;99018.53;;;17.75;72.03
59063;BME280;44851;45.648;9.004;2023-05-29T06:50:36;99018.94;;;17.78;72.76
59063;BME280;44851;45.648;9.004;2023-05-29T06:53:02;99005.97;;;17.77;72.27
59063;BME280;44851;45.648;9.004;2023-05-29T06:55:27;99006.50;;;17.72;73.22
59063;BME280;44851;45.648;9.004;2023-05-29T06:57:52;99019.22;;;17.69;73.34
59063;BME280;44851;45.648;9.004;2023-05-29T07:00:18;99013.47;;;17.58;74.13
59063;BME280;44851;45.648;9.004;2023-05-29T07:02:44;99012.59;;;17.73;73.83
59063;BME280;44851;45.648;9.004;2023-05-29T07:05:09;99015.66;;;17.91;73.08
59063;BME280;44851;45.648;9.004;2023-05-29T07:07:34;99017.13;;;17.79;73.50
59063;BME280;44851;45.648;9.004;2023-05-29T07:10:00;99030.47;;;17.92;73.54
59063;BME280;44851;45.648;9.004;2023-05-29T07:12:26;99026.00;;;18.07;74.57
59063;BME280;44851;45.648;9.004;2023-05-29T07:14:51;99031.59;;;18.19;74.88
59063;BME280;44851;45.648;9.004;2023-05-29T07:17:17;99026.53;;;18.39;75.17
59063;BME280;44851;45.648;9.004;2023-05-29T07:19:42;99021.75;;;18.49;72.94
59063;BME280;44851;45.648;9.004;2023-05-29T07:22:08;99028.91;;;18.55;73.08
59063;BME280;44851;45.648;9.004;2023-05-29T07:24:33;99024.28;;;18.64;72.77
59063;BME280;44851;45.648;9.004;2023-05-29T07:26:59;99024.44;;;18.56;73.18
59063;BME280;44851;45.648;9.004;2023-05-29T07:29:24;99034.44;;;18.60;73.41
59063;BME280;44851;45.648;9.004;2023-05-29T07:31:51;99031.97;;;19.08;72.81
59063;BME280;44851;45.648;9.004;2023-05-29T07:34:17;99034.38;;;19.03;71.83
59063;BME280;44851;45.648;9.004;2023-05-29T07:37:03;99043.56;;;18.86;71.09
59063;BME280;44851;45.648;9.004;2023-05-29T07:39:29;99044.50;;;19.00;71.39
59063;BME280;44851;45.648;9.004;2023-05-29T07:41:55;99040.59;;;18.95;71.14
59063;BME280;44851;45.648;9.004;2023-05-29T07:44:21;99043.56;;;18.86;71.07
59063;BME280;44851;45.648;9.004;2023-05-29T07:46:46;99041.06;;;18.78;69.47
59063;BME280;44851;45.648;9.004;2023-05-29T07:49:13;99048.44;;;18.82;70.75
59063;BME280;44851;45.648;9.004;2023-05-29T07:51:38;99042.59;;;18.65;70.11
59063;BME280;44851;45.648;9.004;2023-05-29T07:54:05;99047.09;;;18.72;70.35
59063;BME280;44851;45.648;9.004;2023-05-29T07:56:30;99046.34;;;18.78;70.26
59063;BME280;44851;45.648;9.004;2023-05-29T07:58:57;99045.72;;;18.76;70.03
59063;BME280;44851;45.648;9.004;2023-05-29T08:01:23;99040.19;;;18.71;70.19
59063;BME280;44851;45.648;9.004;2023-05-29T08:03:48;99040.81;;;18.73;70.96
59063;BME280;44851;45.648;9.004;2023-05-29T08:06:14;99043.16;;;18.82;70.96
59063;BME280;44851;45.648;9.004;2023-05-29T08:08:39;99045.16;;;18.80;70.28
59063;BME280;44851;45.648;9.004;2023-05-29T08:11:05;99050.13;;;18.90;70.21
59063;BME280;44851;45.648;9.004;2023-05-29T08:13:31;99051.84;;;19.04;70.68
59063;BME280;44851;45.648;9.004;2023-05-29T08:15:56;99054.13;;;19.07;71.78
59063;BME280;44851;45.648;9.004;2023-05-29T08:18:25;99052.34;;;19.14;71.55
59063;BME280;44851;45.648;9.004;2023-05-29T08:20:51;99050.31;;;19.16;70.41
59063;BME280;44851;45.648;9.004;2023-05-29T08:23:18;99044.38;;;19.08;68.82
59063;BME280;44851;45.648;9.004;2023-05-29T08:25:43;99052.88;;;19.38;70.37
59063;BME280;44851;45.648;9.004;2023-05-29T08:28:09;99039.50;;;19.46;69.65
59063;BME280;44851;45.648;9.004;2023-05-29T08:30:34;99038.44;;;19.75;70.55
59063;BME280;44851;45.648;9.004;2023-05-29T08:33:00;99038.94;;;20.05;70.42
59063;BME280;44851;45.648;9.004;2023-05-29T08:35:25;99038.66;;;20.74;70.27
59063;BME280;44851;45.648;9.004;2023-05-29T08:37:51;99038.19;;;21.04;65.67
59063;BME280;44851;45.648;9.004;2023-05-29T08:40:16;99035.31;;;21.39;67.11
59063;BME280;44851;45.648;9.004;2023-05-29T08:43:08;99029.56;;;21.55;64.40
59063;BME280;44851;45.648;9.004;2023-05-29T08:45:43;99029.13;;;21.65;61.96
59063;BME280;44851;45.648;9.004;2023-05-29T08:48:11;99021.78;;;22.12;63.28
59063;BME280;44851;45.648;9.004;2023-05-29T08:50:46;99030.88;;;22.22;62.45
59063;BME280;44851;45.648;9.004;2023-05-29T08:53:13;99022.88;;;22.29;62.46
59063;BME280;44851;45.648;9.004;2023-05-29T08:55:39;99024.31;;;22.25;60.64
59063;BME280;44851;45.648;9.004;2023-05-29T08:58:05;99021.88;;;22.23;59.54
59063;BME280;44851;45.648;9.004;2023-05-29T09:00:32;99021.44;;;22.26;58.01
59063;BME280;44851;45.648;9.004;2023-05-29T09:02:58;99022.00;;;22.67;59.69
59063;BME280;44851;45.648;9.004;2023-05-29T09:05:25;99017.94;;;22.64;59.55
59063;BME280;44851;45.648;9.004;2023-05-29T09:08:01;99016.34;;;22.81;58.92
59063;BME280;44851;45.648;9.004;2023-05-29T09:10:29;99016.88;;;22.90;56.88
59063;BME280;44851;45.648;9.004;2023-05-29T09:12:54;99024.84;;;22.90;58.45
59063;BME280;44851;45.648;9.004;2023-05-29T09:15:22;99020.38;;;23.09;56.29
59063;BME280;44851;45.648;9.004;2023-05-29T09:17:56;99024.81;;;23.15;56.68
59063;BME280;44851;45.648;9.004;2023-05-29T09:20:23;99022.25;;;23.27;54.78
59063;BME280;44851;45.648;9.004;2023-05-29T09:23:00;99026.19;;;23.43;56.57
59063;BME280;44851;45.648;9.004;2023-05-29T09:25:28;99025.84;;;23.39;56.21
59063;BME280;44851;45.648;9.004;2023-05-29T09:28:04;99029.44;;;23.63;55.01
59063;BME280;44851;45.648;9.004;2023-05-29T09:32:59;99024.25;;;23.68;54.43
59063;BME280;44851;45.648;9.004;2023-05-29T09:35:24;99031.63;;;23.84;54.66
59063;BME280;44851;45.648;9.004;2023-05-29T09:37:50;99027.09;;;24.03;54.64
59063;BME280;44851;45.648;9.004;2023-05-29T09:40:15;99032.91;;;24.12;53.82
59063;BME280;44851;45.648;9.004;2023-05-29T09:42:41;99024.53;;;23.78;53.07
59063;BME280;44851;45.648;9.004;2023-05-29T09:45:07;99026.38;;;23.59;51.39
59063;BME280;44851;45.648;9.004;2023-05-29T09:47:34;99028.38;;;23.82;56.27
59063;BME280;44851;45.648;9.004;2023-05-29T09:50:00;99020.13;;;24.02;49.00
59063;BME280;44851;45.648;9.004;2023-05-29T09:52:28;99016.03;;;23.70;51.17
59063;BME280;44851;45.648;9.004;2023-05-29T09:54:55;99022.59;;;23.85;52.16
59063;BME280;44851;45.648;9.004;2023-05-29T09:57:22;99024.22;;;24.17;49.81
59063;BME280;44851;45.648;9.004;2023-05-29T09:59:52;99024.13;;;24.23;49.29
59063;BME280;44851;45.648;9.004;2023-05-29T10:02:18;99020.66;;;24.23;49.29
59063;BME280;44851;45.648;9.004;2023-05-29T10:04:44;99012.91;;;24.21;51.47
59063;BME280;44851;45.648;9.004;2023-05-29T10:07:15;99019.91;;;24.46;51.49
59063;BME280;44851;45.648;9.004;2023-05-29T10:09:47;99017.63;;;24.61;50.78
59063;BME280;44851;45.648;9.004;2023-05-29T10:12:18;99022.41;;;24.94;51.76
59063;BME280;44851;45.648;9.004;2023-05-29T10:14:49;99015.34;;;25.00;47.56
59063;BME280;44851;45.648;9.004;2023-05-29T10:17:16;99010.47;;;25.20;48.09
59063;BME280;44851;45.648;9.004;2023-05-29T10:19:45;99009.44;;;25.21;49.13
59063;BME280;44851;45.648;9.004;2023-05-29T10:22:13;99004.09;;;25.21;44.35
59063;BME280;44851;45.648;9.004;2023-05-29T10:24:39;99008.38;;;25.22;49.21
59063;BME280;44851;45.648;9.004;2023-05-29T10:27:05;99005.16;;;25.20;45.89
59063;BME280;44851;45.648;9.004;2023-05-29T10:29:49;99000.69;;;25.37;48.11
59063;BME280;44851;45.648;9.004;2023-05-29T10:35:40;99003.44;;;25.54;46.57
59063;BME280;44851;45.648;9.004;2023-05-29T10:38:15;98997.09;;;25.43;43.34
59063;BME280;44851;45.648;9.004;2023-05-29T10:40:43;98996.22;;;25.55;44.36
59063;BME280;44851;45.648;9.004;2023-05-29T10:45:54;98999.22;;;25.06;44.94
59063;BME280;44851;45.648;9.004;2023-05-29T10:50:47;98984.47;;;25.67;44.00
59063;BME280;44851;45.648;9.004;2023-05-29T10:53:17;98987.31;;;25.89;45.09
59063;BME280;44851;45.648;9.004;2023-05-29T10:55:44;98988.25;;;26.12;44.24
59063;BME280;44851;45.648;9.004;2023-05-29T10:58:18;98981.97;;;25.89;41.74
59063;BME280;44851;45.648;9.004;2023-05-29T11:00:44;98983.28;;;25.75;40.61
59063;BME280;44851;45.648;9.004;2023-05-29T11:03:24;98992.31;;;25.86;41.79
59063;BME280;44851;45.648;9.004;2023-05-29T11:06:00;98983.69;;;25.95;40.30
59063;BME280;44851;45.648;9.004;2023-05-29T11:08:42;98977.63;;;26.00;40.64
59063;BME280;44851;45.648;9.004;2023-05-29T11:11:30;98981.50;;;26.09;40.74
59063;BME280;44851;45.648;9.004;2023-05-29T11:14:03;98974.06;;;26.11;39.85
59063;BME280;44851;45.648;9.004;2023-05-29T11:18:56;98972.13;;;26.07;40.48
59063;BME280;44851;45.648;9.004;2023-05-29T11:24:22;98965.28;;;26.44;42.79
59063;BME280;44851;45.648;9.004;2023-05-29T11:26:50;98964.88;;;26.53;42.33
59063;BME280;44851;45.648;9.004;2023-05-29T11:29:23;98954.09;;;26.47;40.45
59063;BME280;44851;45.648;9.004;2023-05-29T11:31:53;98956.00;;;26.86;41.08
59063;BME280;44851;45.648;9.004;2023-05-29T11:34:22;98956.44;;;26.99;43.49
59063;BME280;44851;45.648;9.004;2023-05-29T11:36:48;98950.38;;;27.04;42.61
59063;BME280;44851;45.648;9.004;2023-05-29T11:39:14;98954.63;;;26.83;39.24
59063;BME280;44851;45.648;9.004;2023-05-29T11:41:40;98946.97;;;26.70;40.14
59063;BME280;44851;45.648;9.004;2023-05-29T11:44:05;98948.72;;;26.81;39.50
59063;BME280;44851;45.648;9.004;2023-05-29T11:46:32;98946.97;;;26.70;38.33
59063;BME280;44851;45.648;9.004;2023-05-29T11:48:58;98942.84;;;26.84;39.21
59063;BME280;44851;45.648;9.004;2023-05-29T11:51:24;98932.78;;;26.69;37.35
59063;BME280;44851;45.648;9.004;2023-05-29T11:53:50;98937.81;;;27.05;38.54
59063;BME280;44851;45.648;9.004;2023-05-29T11:56:18;98929.84;;;26.71;36.38
59063;BME280;44851;45.648;9.004;2023-05-29T11:58:44;98931.50;;;26.94;38.96
59063;BME280;44851;45.648;9.004;2023-05-29T12:01:10;98926.69;;;26.40;37.78
59063;BME280;44851;45.648;9.004;2023-05-29T12:03:42;98926.03;;;26.67;39.02
59063;BME280;44851;45.648;9.004;2023-05-29T12:06:11;98924.84;;;26.96;37.21
59063;BME280;44851;45.648;9.004;2023-05-29T12:08:37;98912.38;;;27.24;37.87
59063;BME280;44851;45.648;9.004;2023-05-29T12:11:03;98913.97;;;27.25;39.47
59063;BME280;44851;45.648;9.004;2023-05-29T12:13:29;98915.09;;;27.29;37.46
59063;BME280;44851;45.648;9.004;2023-05-29T12:15:59;98913.19;;;27.51;40.40
59063;BME280;44851;45.648;9.004;2023-05-29T12:18:26;98910.88;;;27.33;37.28
59063;BME280;44851;45.648;9.004;2023-05-29T12:21:00;98911.28;;;27.74;36.76
59063;BME280;44851;45.648;9.004;2023-05-29T12:23:30;98907.81;;;27.73;37.50
59063;BME280;44851;45.648;9.004;2023-05-29T12:25:58;98911.47;;;27.94;36.79
59063;BME280;44851;45.648;9.004;2023-05-29T12:28:23;98910.25;;;27.53;33.39
59063;BME280;44851;45.648;9.004;2023-05-29T12:30:49;98902.63;;;27.62;34.52
59063;BME280;44851;45.648;9.004;2023-05-29T12:33:33;98898.88;;;27.63;33.40
59063;BME280;44851;45.648;9.004;2023-05-29T12:36:04;98903.69;;;27.93;34.72
59063;BME280;44851;45.648;9.004;2023-05-29T12:38:30;98895.97;;;28.01;36.01
59063;BME280;44851;45.648;9.004;2023-05-29T12:40:55;98894.97;;;28.08;37.08
59063;BME280;44851;45.648;9.004;2023-05-29T12:43:22;98893.69;;;27.83;33.52
59063;BME280;44851;45.648;9.004;2023-05-29T12:45:54;98890.34;;;27.98;36.45
59063;BME280;44851;45.648;9.004;2023-05-29T12:48:20;98886.38;;;28.06;36.66
59063;BME280;44851;45.648;9.004;2023-05-29T12:50:49;98896.69;;;28.19;35.12
59063;BME280;44851;45.648;9.004;2023-05-29T12:53:15;98885.72;;;28.20;35.32
59063;BME280;44851;45.648;9.004;2023-05-29T12:55:41;98889.03;;;28.38;34.96
59063;BME280;44851;45.648;9.004;2023-05-29T12:58:12;98890.91;;;28.37;34.66
59063;BME280;44851;45.648;9.004;2023-05-29T13:00:39;98886.41;;;28.43;36.63
59063;BME280;44851;45.648;9.004;2023-05-29T13:03:06;98885.56;;;28.37;34.46
59063;BME280;44851;45.648;9.004;2023-05-29T13:05:32;98883.97;;;28.41;35.79
59063;BME280;44851;45.648;9.004;2023-05-29T13:07:57;98875.91;;;28.36;33.56
59063;BME280;44851;45.648;9.004;2023-05-29T13:10:24;98878.94;;;28.55;34.71
59063;BME280;44851;45.648;9.004;2023-05-29T13:12:50;98871.78;;;28.71;33.96
59063;BME280;44851;45.648;9.004;2023-05-29T13:15:21;98875.00;;;28.68;35.05
59063;BME280;44851;45.648;9.004;2023-05-29T13:17:47;98865.34;;;28.67;34.96
59063;BME280;44851;45.648;9.004;2023-05-29T13:20:13;98865.06;;;28.63;34.84
59063;BME280;44851;45.648;9.004;2023-05-29T13:22:39;98865.81;;;28.53;34.78
59063;BME280;44851;45.648;9.004;2023-05-29T13:25:06;98859.63;;;28.53;33.83